Time;durP1;ratioP1;P1;durP2;ratioP2;P2;SDS_P1;SDS_P2;PMS_P1;PMS_P2;Temp;Humidity;BMP_temperature;BMP_pressure;BME280_temperature;BME280_humidity;BME280_pressure;Samples;Min_cycle;Max_cycle;Signal;HPM_P1;HPM_P2
2021/12/19 00:01:51;;;;;;;31.88;13.45;;;;;;;;;;5034566;28;20049;-79
2021/12/19 00:04:27;;;;;;;35.05;13.95;;;;;;;;;;5035932;28;20099;-79
2021/12/19 00:09:41;;;;;;;32.78;13.77;;;;;;;;;;5036920;28;20095;-79
2021/12/19 00:12:09;;;;;;;35.33;15.05;;;;;;;;;;5035975;28;20049;-81
2021/12/19 00:14:36;;;;;;;32.15;13.98;;;;;;;;;;5037129;28;20057;-79
2021/12/19 00:17:04;;;;;;;32.10;14.50;;;;;;;;;;5039230;28;20041;-81
2021/12/19 00:19:32;;;;;;;34.72;14.07;;;;;;;;;;5038924;28;20046;-78
2021/12/19 00:21:59;;;;;;;34.53;14.32;;;;;;;;;;5034522;28;20088;-81
2021/12/19 00:24:26;;;;;;;36.03;15.57;;;;;;;;;;5035227;28;20052;-79
2021/12/19 00:26:53;;;;;;;34.33;14.75;;;;;;;;;;5033760;28;20141;-81
2021/12/19 00:29:23;;;;;;;38.75;14.65;;;;;;;;;;5035018;28;20056;-80
2021/12/19 00:31:50;;;;;;;32.33;14.02;;;;;;;;;;5035504;28;20132;-79
2021/12/19 00:34:19;;;;;;;35.35;14.02;;;;;;;;;;5036317;28;20088;-80
2021/12/19 00:36:50;;;;;;;33.67;12.38;;;;;;;;;;5035616;28;20488;-79
2021/12/19 00:39:17;;;;;;;34.30;15.48;;;;;;;;;;5034541;28;20069;-78
2021/12/19 00:41:44;;;;;;;34.10;13.88;;;;;;;;;;5033442;28;20054;-77
2021/12/19 00:44:12;;;;;;;30.95;12.63;;;;;;;;;;5036912;28;20068;-79
2021/12/19 00:46:48;;;;;;;38.92;13.98;;;;;;;;;;5034713;28;20049;-79
2021/12/19 00:49:17;;;;;;;32.33;12.93;;;;;;;;;;5033727;28;20045;-79
2021/12/19 00:51:45;;;;;;;33.97;14.15;;;;;;;;;;5033824;28;20041;-78
2021/12/19 00:54:15;;;;;;;36.97;15.00;;;;;;;;;;5034778;28;20053;-80
2021/12/19 00:56:53;;;;;;;41.40;14.90;;;;;;;;;;5036510;28;20070;-78
2021/12/19 00:59:20;;;;;;;34.40;13.73;;;;;;;;;;5037420;28;20128;-77
2021/12/19 01:01:48;;;;;;;37.40;14.80;;;;;;;;;;5037788;28;20053;-77
2021/12/19 01:04:18;;;;;;;37.63;13.38;;;;;;;;;;5038216;28;20087;-79
2021/12/19 01:06:47;;;;;;;35.60;13.27;;;;;;;;;;5037392;28;20045;-78
2021/12/19 01:09:16;;;;;;;32.97;13.07;;;;;;;;;;5035914;28;20076;-78
2021/12/19 01:11:47;;;;;;;33.70;14.18;;;;;;;;;;5039593;28;20072;-78
2021/12/19 01:14:14;;;;;;;;;;;;;;;;;;5097560;22;20045;-65
2021/12/19 01:16:41;;;;;;;34.33;13.93;;;;;;;;;;5074964;28;19927;-66
2021/12/19 01:19:08;;;;;;;34.95;14.02;;;;;;;;;;5074712;28;20045;-66
2021/12/19 01:21:35;;;;;;;33.67;14.18;;;;;;;;;;5074287;28;20048;-66
2021/12/19 01:24:02;;;;;;;30.92;13.05;;;;;;;;;;5054721;28;20049;-66
2021/12/19 01:26:31;;;;;;;30.35;11.98;;;;;;;;;;5054626;28;20140;-66
2021/12/19 01:28:58;;;;;;;30.95;13.18;;;;;;;;;;5054385;28;20052;-67
2021/12/19 01:31:25;;;;;;;35.17;13.82;;;;;;;;;;5054480;28;20052;-67
2021/12/19 01:33:52;;;;;;;30.92;13.20;;;;;;;;;;5054466;28;20056;-67
2021/12/19 01:36:19;;;;;;;35.72;14.27;;;;;;;;;;5054412;28;20057;-67
2021/12/19 01:38:46;;;;;;;31.75;12.48;;;;;;;;;;5054120;28;20055;-67
2021/12/19 01:41:13;;;;;;;30.70;12.85;;;;;;;;;;5054182;28;20059;-67
2021/12/19 01:43:41;;;;;;;35.17;14.65;;;;;;;;;;5054308;28;20049;-67
2021/12/19 01:46:08;;;;;;;36.03;14.23;;;;;;;;;;5054313;28;20051;-67
2021/12/19 01:48:35;;;;;;;32.05;13.65;;;;;;;;;;5054055;28;20041;-67
2021/12/19 01:51:02;;;;;;;39.15;14.18;;;;;;;;;;5054124;28;20060;-67
2021/12/19 01:53:29;;;;;;;42.33;15.73;;;;;;;;;;5054114;28;20053;-67
2021/12/19 01:55:57;;;;;;;40.40;13.13;;;;;;;;;;5054293;28;20057;-67
2021/12/19 01:58:24;;;;;;;35.58;13.88;;;;;;;;;;5053917;28;20053;-67
2021/12/19 02:00:56;;;;;;;36.83;14.45;;;;;;;;;;5054012;28;20044;-67
2021/12/19 02:03:24;;;;;;;35.30;13.05;;;;;;;;;;5054056;28;20049;-67
2021/12/19 02:05:51;;;;;;;39.65;14.50;;;;;;;;;;5054028;28;20049;-67
2021/12/19 02:08:18;;;;;;;36.28;13.40;;;;;;;;;;5053295;28;20060;-67
2021/12/19 02:10:46;;;;;;;34.03;14.10;;;;;;;;;;5054016;28;20045;-67
2021/12/19 02:13:16;;;;;;;29.30;12.07;;;;;;;;;;5053629;28;20045;-67
2021/12/19 02:15:44;;;;;;;32.33;12.68;;;;;;;;;;5054113;28;20045;-67
2021/12/19 02:18:14;;;;;;;28.75;11.63;;;;;;;;;;5053824;28;20085;-67
2021/12/19 02:20:46;;;;;;;34.05;11.88;;;;;;;;;;5053833;28;20132;-67
2021/12/19 02:23:13;;;;;;;29.05;12.20;;;;;;;;;;5053455;28;20057;-67
2021/12/19 02:25:41;;;;;;;33.25;12.63;;;;;;;;;;5053534;28;20045;-67
2021/12/19 02:28:10;;;;;;;36.45;12.98;;;;;;;;;;5053532;28;20049;-67
2021/12/19 02:30:38;;;;;;;35.47;12.48;;;;;;;;;;5053129;28;20083;-67
2021/12/19 02:33:09;;;;;;;31.70;13.10;;;;;;;;;;5053119;28;20049;-68
2021/12/19 02:35:36;;;;;;;31.40;11.98;;;;;;;;;;5053471;28;20143;-68
2021/12/19 02:38:36;;;;;;;30.00;11.32;;;;;;;;;;5052785;28;20135;-68
2021/12/19 02:49:23;;;;;;;34.65;12.45;;;;;;;;;;5052786;28;20096;-68
2021/12/19 02:51:51;;;;;;;36.28;12.93;;;;;;;;;;5053037;28;20063;-68
2021/12/19 02:54:20;;;;;;;35.00;14.02;;;;;;;;;;5052836;28;20148;-68
2021/12/19 02:56:47;;;;;;;32.03;12.60;;;;;;;;;;5052721;28;20579;-68
2021/12/19 02:59:14;;;;;;;37.75;13.90;;;;;;;;;;5052568;28;20409;-68
2021/12/19 03:01:44;;;;;;;35.45;13.73;;;;;;;;;;5052614;28;20049;-68
2021/12/19 03:04:11;;;;;;;41.03;15.10;;;;;;;;;;5053185;28;20052;-68
2021/12/19 03:06:44;;;;;;;35.33;13.00;;;;;;;;;;5052559;28;20051;-68
2021/12/19 03:09:12;;;;;;;36.60;14.30;;;;;;;;;;5052119;28;20057;-68
2021/12/19 03:19:53;;;;;;;33.83;11.95;;;;;;;;;;5051268;28;20052;-68
2021/12/19 03:22:20;;;;;;;41.10;14.23;;;;;;;;;;5052303;28;20055;-68
2021/12/19 03:24:47;;;;;;;34.72;12.43;;;;;;;;;;5052179;28;20092;-68
2021/12/19 03:27:15;;;;;;;35.67;12.20;;;;;;;;;;5052194;28;20048;-68
2021/12/19 03:29:42;;;;;;;31.15;11.43;;;;;;;;;;5048664;28;20155;-68
2021/12/19 03:32:09;;;;;;;36.55;11.88;;;;;;;;;;5052272;28;20053;-67
2021/12/19 03:34:36;;;;;;;38.10;13.30;;;;;;;;;;5052221;28;20505;-68
2021/12/19 03:37:04;;;;;;;36.22;13.55;;;;;;;;;;5051971;28;20061;-68
2021/12/19 03:39:44;;;;;;;34.05;12.02;;;;;;;;;;5051722;28;20053;-68
2021/12/19 03:42:12;;;;;;;35.90;12.17;;;;;;;;;;5051850;28;20053;-68
2021/12/19 03:44:40;;;;;;;34.88;12.70;;;;;;;;;;5052268;28;20055;-68
2021/12/19 03:47:07;;;;;;;36.00;12.98;;;;;;;;;;5051803;28;20049;-68
2021/12/19 03:49:34;;;;;;;36.58;13.68;;;;;;;;;;5051688;28;20060;-68
2021/12/19 03:52:01;;;;;;;39.10;13.15;;;;;;;;;;5051769;28;20143;-68
2021/12/19 03:54:28;;;;;;;35.78;11.90;;;;;;;;;;5051888;28;20051;-68
2021/12/19 03:56:55;;;;;;;37.08;13.75;;;;;;;;;;5051809;28;20068;-68
2021/12/19 03:59:22;;;;;;;32.15;12.13;;;;;;;;;;5051536;28;20049;-68
2021/12/19 04:01:52;;;;;;;33.97;11.90;;;;;;;;;;5051554;28;20053;-68
2021/12/19 04:04:19;;;;;;;33.50;11.77;;;;;;;;;;5051932;28;20049;-68
2021/12/19 04:06:46;;;;;;;33.97;12.60;;;;;;;;;;5051659;28;20048;-67
2021/12/19 04:09:13;;;;;;;38.45;14.80;;;;;;;;;;5051376;28;20057;-67
2021/12/19 04:11:40;;;;;;;33.15;11.80;;;;;;;;;;5051424;28;20049;-67
2021/12/19 04:14:07;;;;;;;33.38;12.07;;;;;;;;;;5051566;28;20049;-67
2021/12/19 04:16:34;;;;;;;31.52;11.85;;;;;;;;;;5051580;28;20417;-67
2021/12/19 04:19:03;;;;;;;32.72;11.98;;;;;;;;;;5051206;28;20486;-67
2021/12/19 04:21:30;;;;;;;35.35;12.95;;;;;;;;;;5051575;28;20055;-67
2021/12/19 04:23:57;;;;;;;36.67;12.68;;;;;;;;;;5051466;28;20426;-67
2021/12/19 04:26:23;;;;;;;36.05;11.93;;;;;;;;;;5051417;28;20052;-67
2021/12/19 04:28:50;;;;;;;33.47;11.00;;;;;;;;;;5051409;28;20049;-67
2021/12/19 04:31:17;;;;;;;35.30;11.60;;;;;;;;;;5053299;28;20052;-67
2021/12/19 04:33:44;;;;;;;37.08;13.05;;;;;;;;;;5055579;28;20358;-67
2021/12/19 04:36:21;;;;;;;34.47;12.68;;;;;;;;;;5055502;28;20060;-67
2021/12/19 04:39:20;;;;;;;43.00;13.98;;;;;;;;;;5055043;28;20045;-67
2021/12/19 04:58:51;;;;;;;36.00;11.02;;;;;;;;;;5054948;28;20408;-67
2021/12/19 05:01:45;;;;;;;36.22;12.07;;;;;;;;;;5055056;28;20503;-67
2021/12/19 05:04:24;;;;;;;36.63;12.40;;;;;;;;;;5054959;28;20053;-67
2021/12/19 05:15:09;;;;;;;39.03;13.50;;;;;;;;;;5054930;28;20158;-67
2021/12/19 05:17:36;;;;;;;44.58;12.75;;;;;;;;;;5054454;28;20057;-67
2021/12/19 05:20:14;;;;;;;36.45;13.05;;;;;;;;;;5054491;28;20045;-67
2021/12/19 05:22:47;;;;;;;36.97;14.00;;;;;;;;;;5054560;28;20502;-67
2021/12/19 05:25:17;;;;;;;42.17;14.57;;;;;;;;;;5054678;28;20143;-67
2021/12/19 05:27:45;;;;;;;34.38;12.35;;;;;;;;;;5054303;28;20122;-67
2021/12/19 05:30:14;;;;;;;38.88;13.95;;;;;;;;;;5054423;28;20053;-67
2021/12/19 05:32:41;;;;;;;38.58;14.35;;;;;;;;;;5054440;28;20418;-67
2021/12/19 05:35:11;;;;;;;38.28;13.05;;;;;;;;;;5054219;28;20045;-67
2021/12/19 05:45:53;;;;;;;44.22;13.77;;;;;;;;;;5054467;28;20064;-67
2021/12/19 05:48:20;;;;;;;43.95;14.65;;;;;;;;;;5053951;28;20076;-67
2021/12/19 05:50:47;;;;;;;40.20;13.82;;;;;;;;;;5053789;28;20060;-67
2021/12/19 05:53:15;;;;;;;36.25;13.30;;;;;;;;;;5053962;28;20486;-67
2021/12/19 05:55:43;;;;;;;42.28;14.93;;;;;;;;;;5053981;28;20056;-67
2021/12/19 05:58:10;;;;;;;40.03;13.48;;;;;;;;;;5053603;28;20052;-67
2021/12/19 06:00:38;;;;;;;29.85;11.57;;;;;;;;;;5053877;28;20049;-67
2021/12/19 06:03:06;;;;;;;41.20;13.68;;;;;;;;;;5053861;28;20051;-67
2021/12/19 06:05:33;;;;;;;33.60;13.13;;;;;;;;;;5054006;28;20502;-67
2021/12/19 06:08:00;;;;;;;37.03;11.68;;;;;;;;;;5053485;28;20041;-67
2021/12/19 06:10:28;;;;;;;31.27;11.65;;;;;;;;;;5053547;28;20453;-67
2021/12/19 06:12:59;;;;;;;35.05;13.88;;;;;;;;;;5053323;28;20056;-67
2021/12/19 06:15:26;;;;;;;;;;;;;;;;;;5054356;28;20059;-67
2021/12/19 06:17:53;;;;;;;36.72;13.00;;;;;;;;;;5053379;28;20290;-67
2021/12/19 06:20:21;;;;;;;39.30;12.77;;;;;;;;;;5053405;28;20359;-67
2021/12/19 06:22:48;;;;;;;42.45;12.35;;;;;;;;;;5053238;28;20094;-67
2021/12/19 06:25:15;;;;;;;37.78;12.23;;;;;;;;;;5053519;28;20063;-67
2021/12/19 06:27:42;;;;;;;36.95;13.80;;;;;;;;;;5053157;28;20044;-67
2021/12/19 06:30:12;;;;;;;43.80;13.93;;;;;;;;;;5053345;28;20409;-67
2021/12/19 06:32:39;;;;;;;41.72;15.05;;;;;;;;;;5053157;28;20384;-67
2021/12/19 06:35:11;;;;;;;36.03;12.32;;;;;;;;;;5053204;28;20051;-67
2021/12/19 06:37:39;;;;;;;41.83;13.18;;;;;;;;;;5052779;28;20068;-67
2021/12/19 06:40:08;;;;;;;36.22;14.80;;;;;;;;;;5052967;28;20418;-67
2021/12/19 06:42:35;;;;;;;38.78;14.30;;;;;;;;;;5052925;28;20053;-67
2021/12/19 06:45:03;;;;;;;39.80;14.00;;;;;;;;;;5053241;28;20118;-67
2021/12/19 06:47:31;;;;;;;35.75;14.13;;;;;;;;;;5052692;28;20048;-67
2021/12/19 06:49:58;;;;;;;36.92;13.07;;;;;;;;;;5052828;28;20060;-67
2021/12/19 06:52:25;;;;;;;39.40;12.77;;;;;;;;;;5052902;28;20053;-67
2021/12/19 06:54:52;;;;;;;41.53;14.60;;;;;;;;;;5052910;28;20053;-67
2021/12/19 06:57:19;;;;;;;36.25;13.07;;;;;;;;;;5052841;28;20049;-67
2021/12/19 06:59:47;;;;;;;37.65;13.55;;;;;;;;;;5052521;28;20504;-67
2021/12/19 07:02:15;;;;;;;37.80;13.10;;;;;;;;;;5052584;28;20144;-67
2021/12/19 07:04:45;;;;;;;42.47;14.43;;;;;;;;;;5052768;28;20620;-67
2021/12/19 07:07:12;;;;;;;39.75;13.52;;;;;;;;;;5052624;28;20049;-67
2021/12/19 07:09:39;;;;;;;37.60;13.68;;;;;;;;;;5052384;28;20091;-67
2021/12/19 07:12:07;;;;;;;38.20;13.13;;;;;;;;;;5052363;28;20053;-67
2021/12/19 07:14:35;;;;;;;42.60;16.38;;;;;;;;;;5052347;28;20049;-66
2021/12/19 07:17:01;;;;;;;40.00;14.13;;;;;;;;;;5052332;28;20056;-65
2021/12/19 07:19:28;;;;;;;34.58;12.95;;;;;;;;;;5052046;28;20053;-66
2021/12/19 07:21:57;;;;;;;35.17;12.85;;;;;;;;;;5052301;28;20490;-66
2021/12/19 07:24:24;;;;;;;30.98;12.30;;;;;;;;;;5052281;28;20068;-66
2021/12/19 07:26:50;;;;;;;34.15;13.75;;;;;;;;;;5052193;28;20060;-66
2021/12/19 07:29:17;;;;;;;29.00;11.10;;;;;;;;;;5051983;28;20045;-66
2021/12/19 07:31:46;;;;;;;35.55;12.25;;;;;;;;;;5051969;28;20490;-66
2021/12/19 07:34:12;;;;;;;31.85;10.27;;;;;;;;;;5052443;28;20092;-66
2021/12/19 07:36:42;;;;;;;32.53;11.32;;;;;;;;;;5052042;28;20053;-66
2021/12/19 07:39:22;;;;;;;35.17;11.95;;;;;;;;;;5051812;28;20084;-66
2021/12/19 07:41:49;;;;;;;29.33;10.15;;;;;;;;;;5051844;28;20055;-66
2021/12/19 07:44:16;;;;;;;31.60;12.20;;;;;;;;;;5051882;28;20181;-66
2021/12/19 07:46:44;;;;;;;32.50;12.25;;;;;;;;;;5052018;28;20064;-66
2021/12/19 07:49:11;;;;;;;32.30;12.90;;;;;;;;;;5051480;28;20140;-66
2021/12/19 07:51:38;;;;;;;30.13;11.32;;;;;;;;;;5051856;28;20056;-66
2021/12/19 07:54:05;;;;;;;31.08;10.80;;;;;;;;;;5051903;28;20052;-65
2021/12/19 07:56:33;;;;;;;27.70;9.95;;;;;;;;;;5051876;28;20438;-66
2021/12/19 07:59:00;;;;;;;29.33;10.88;;;;;;;;;;5051532;28;20486;-65
2021/12/19 08:01:27;;;;;;;31.55;11.68;;;;;;;;;;5052026;28;20053;-65
2021/12/19 08:03:54;;;;;;;31.63;11.55;;;;;;;;;;5051613;28;20053;-66
2021/12/19 08:06:21;;;;;;;31.08;12.05;;;;;;;;;;5051270;28;20071;-65
2021/12/19 08:08:52;;;;;;;28.80;11.15;;;;;;;;;;5051526;28;20048;-65
2021/12/19 08:14:19;;;;;;;26.60;11.52;;;;;;;;;;4990168;28;20076;-66
2021/12/19 08:16:47;;;;;;;37.40;13.80;;;;;;;;;;4990227;28;20050;-66
2021/12/19 08:19:14;;;;;;;31.17;11.25;;;;;;;;;;5017371;28;20049;-66
2021/12/19 08:21:41;;;;;;;29.00;11.52;;;;;;;;;;5051472;28;20123;-66
2021/12/19 08:24:11;;;;;;;30.13;12.20;;;;;;;;;;5051666;28;20057;-66
2021/12/19 08:26:40;;;;;;;32.87;11.97;;;;;;;;;;5051678;28;20055;-66
2021/12/19 08:29:08;;;;;;;29.27;10.70;;;;;;;;;;5051769;28;20282;-66
2021/12/19 08:31:36;;;;;;;26.70;11.25;;;;;;;;;;5051883;28;20061;-66
2021/12/19 08:34:03;;;;;;;27.42;11.65;;;;;;;;;;5051606;28;20049;-66
2021/12/19 08:36:30;;;;;;;27.17;11.50;;;;;;;;;;5051465;28;20052;-65
2021/12/19 08:38:58;;;;;;;27.10;12.30;;;;;;;;;;5051253;28;20053;-65
2021/12/19 08:41:26;;;;;;;30.67;12.05;;;;;;;;;;5051872;28;20067;-66
2021/12/19 08:43:52;;;;;;;34.08;12.10;;;;;;;;;;5051520;28;20136;-67
2021/12/19 08:46:19;;;;;;;29.55;12.20;;;;;;;;;;5051206;28;20406;-66
2021/12/19 08:48:48;;;;;;;28.13;11.88;;;;;;;;;;5050725;28;20460;-66
2021/12/19 08:51:15;;;;;;;29.85;12.02;;;;;;;;;;5051738;28;20501;-66
2021/12/19 08:53:41;;;;;;;29.52;11.45;;;;;;;;;;5051285;28;20053;-66
2021/12/19 08:56:08;;;;;;;33.17;11.85;;;;;;;;;;5050893;28;20049;-66
2021/12/19 08:58:35;;;;;;;28.65;12.38;;;;;;;;;;5050575;28;20041;-66
2021/12/19 09:01:02;;;;;;;25.40;11.30;;;;;;;;;;5050930;28;20060;-65
2021/12/19 09:03:30;;;;;;;29.95;11.55;;;;;;;;;;5051136;28;20486;-65
2021/12/19 09:05:59;;;;;;;31.58;12.10;;;;;;;;;;5051356;28;20099;-66
2021/12/19 09:08:26;;;;;;;28.77;12.23;;;;;;;;;;5050741;28;20441;-66
2021/12/19 09:10:54;;;;;;;30.33;12.63;;;;;;;;;;5050520;28;20053;-66
2021/12/19 09:13:21;;;;;;;26.92;10.98;;;;;;;;;;5050446;28;20056;-65
2021/12/19 09:15:48;;;;;;;27.88;12.15;;;;;;;;;;5050593;28;20049;-65
2021/12/19 09:18:15;;;;;;;31.52;12.23;;;;;;;;;;5051724;28;20052;-65
2021/12/19 09:20:42;;;;;;;35.50;14.10;;;;;;;;;;5054225;28;20064;-65
2021/12/19 09:23:12;;;;;;;29.23;11.50;;;;;;;;;;5051485;28;20124;-66
2021/12/19 09:25:40;;;;;;;30.58;12.20;;;;;;;;;;5059422;28;20052;-66
2021/12/19 09:28:07;;;;;;;31.25;11.25;;;;;;;;;;5053861;28;20127;-66
2021/12/19 09:30:34;;;;;;;28.83;12.45;;;;;;;;;;5054105;28;20057;-66
2021/12/19 09:33:01;;;;;;;27.17;11.77;;;;;;;;;;5051503;28;20151;-66
2021/12/19 09:35:28;;;;;;;32.38;12.27;;;;;;;;;;5053936;28;20045;-67
2021/12/19 09:37:55;;;;;;;28.13;12.25;;;;;;;;;;5054021;28;20482;-64
2021/12/19 09:40:32;;;;;;;30.17;12.02;;;;;;;;;;5054058;28;20045;-66
2021/12/19 09:43:03;;;;;;;44.42;19.00;;;;;;;;;;5053847;28;20045;-66
2021/12/19 09:45:31;;;;;;;33.20;14.63;;;;;;;;;;5054900;28;20144;-67
2021/12/19 09:47:58;;;;;;;28.45;12.40;;;;;;;;;;5054322;28;20399;-67
2021/12/19 09:50:26;;;;;;;32.10;15.57;;;;;;;;;;5067545;28;20063;-66
2021/12/19 09:52:52;;;;;;;35.72;14.18;;;;;;;;;;5073547;28;20048;-65
2021/12/19 09:55:21;;;;;;;34.25;14.50;;;;;;;;;;5073829;28;20044;-66
2021/12/19 09:57:51;;;;;;;34.22;14.65;;;;;;;;;;5073449;28;20052;-66
2021/12/19 10:00:18;;;;;;;31.38;12.32;;;;;;;;;;5074180;28;20084;-66
2021/12/19 10:02:46;;;;;;;36.50;14.18;;;;;;;;;;5073957;28;20060;-66
2021/12/19 10:05:22;;;;;;;32.58;13.65;;;;;;;;;;5068750;28;20459;-67
2021/12/19 10:07:51;;;;;;;30.63;13.73;;;;;;;;;;5053474;28;20362;-69
2021/12/19 10:10:27;;;;;;;33.47;14.27;;;;;;;;;;5051392;28;20095;-67
2021/12/19 10:12:58;;;;;;;37.30;14.65;;;;;;;;;;5053462;28;20571;-64
2021/12/19 10:15:31;;;;;;;36.28;14.95;;;;;;;;;;5053199;28;20490;-69
2021/12/19 10:18:04;;;;;;;36.30;14.65;;;;;;;;;;5053016;28;20060;-65
2021/12/19 10:20:50;;;;;;;39.72;14.38;;;;;;;;;;5052697;28;20041;-67
2021/12/19 10:23:20;;;;;;;33.30;14.20;;;;;;;;;;5050807;28;20045;-67
2021/12/19 10:26:00;;;;;;;36.55;14.93;;;;;;;;;;5070661;28;20561;-67
2021/12/19 10:28:29;;;;;;;34.72;13.77;;;;;;;;;;5067924;28;20044;-67
2021/12/19 10:30:58;;;;;;;41.10;15.00;;;;;;;;;;5073029;28;20489;-67
2021/12/19 10:33:28;;;;;;;31.77;13.63;;;;;;;;;;5068262;28;20047;-67
2021/12/19 10:35:57;;;;;;;31.13;13.30;;;;;;;;;;5073357;28;20060;-68
2021/12/19 10:38:27;;;;;;;28.33;12.00;;;;;;;;;;5068139;28;20051;-67
2021/12/19 10:40:55;;;;;;;32.17;12.77;;;;;;;;;;5073281;28;20398;-67
2021/12/19 10:43:26;;;;;;;32.45;13.52;;;;;;;;;;5072603;28;20497;-68
2021/12/19 10:45:58;;;;;;;28.45;13.73;;;;;;;;;;5073119;28;20408;-67
2021/12/19 10:48:28;;;;;;;33.42;13.93;;;;;;;;;;5068530;28;20498;-67
2021/12/19 10:50:59;;;;;;;29.63;13.13;;;;;;;;;;5073553;28;20049;-68
2021/12/19 10:53:29;;;;;;;34.63;14.57;;;;;;;;;;5068708;28;20044;-67
2021/12/19 10:55:57;;;;;;;34.00;13.75;;;;;;;;;;5073024;28;20053;-67
2021/12/19 10:58:28;;;;;;;34.78;13.68;;;;;;;;;;5062102;28;20051;-68
2021/12/19 11:01:04;;;;;;;32.97;13.05;;;;;;;;;;5072771;28;20519;-68
2021/12/19 11:03:44;;;;;;;26.75;11.55;;;;;;;;;;5069507;28;20508;-68
2021/12/19 11:06:19;;;;;;;29.70;12.60;;;;;;;;;;5069856;28;20049;-68
2021/12/19 11:08:46;;;;;;;30.85;14.10;;;;;;;;;;5068241;28;20049;-68
2021/12/19 11:11:28;;;;;;;30.17;13.02;;;;;;;;;;5072717;28;20044;-67
2021/12/19 11:13:56;;;;;;;23.35;11.35;;;;;;;;;;5070383;28;20049;-68
2021/12/19 11:16:24;;;;;;;24.23;11.40;;;;;;;;;;5067488;28;20052;-68
2021/12/19 11:18:52;;;;;;;27.25;11.32;;;;;;;;;;5071486;28;20417;-68
2021/12/19 11:21:19;;;;;;;27.08;12.82;;;;;;;;;;5072183;28;20044;-67
2021/12/19 11:23:46;;;;;;;29.25;12.23;;;;;;;;;;5072356;28;20118;-68
2021/12/19 11:26:13;;;;;;;30.95;12.48;;;;;;;;;;5072886;28;20103;-68
2021/12/19 11:28:41;;;;;;;25.20;10.63;;;;;;;;;;5072595;28;20041;-68
2021/12/19 11:31:08;;;;;;;28.85;12.68;;;;;;;;;;5072058;28;20132;-68
2021/12/19 11:33:46;;;;;;;31.73;12.88;;;;;;;;;;5071842;28;20472;-68
2021/12/19 11:36:16;;;;;;;32.05;14.10;;;;;;;;;;5069717;28;20045;-68
2021/12/19 11:38:45;;;;;;;27.65;12.38;;;;;;;;;;5066871;28;20056;-68
2021/12/19 11:41:12;;;;;;;29.33;13.30;;;;;;;;;;5071160;28;20044;-68
2021/12/19 11:43:42;;;;;;;29.70;11.93;;;;;;;;;;5071850;28;20048;-68
2021/12/19 11:46:16;;;;;;;26.80;12.05;;;;;;;;;;5072122;28;20052;-68
2021/12/19 11:48:46;;;;;;;29.30;12.85;;;;;;;;;;5067008;28;20056;-68
2021/12/19 11:51:19;;;;;;;29.88;14.23;;;;;;;;;;5072379;28;20051;-68
2021/12/19 11:53:46;;;;;;;29.63;12.75;;;;;;;;;;5067663;28;20413;-68
2021/12/19 11:56:16;;;;;;;26.88;11.43;;;;;;;;;;5071617;28;20048;-68
2021/12/19 11:58:45;;;;;;;26.83;12.15;;;;;;;;;;5066812;28;20105;-68
2021/12/19 12:01:23;;;;;;;28.25;12.60;;;;;;;;;;5071795;28;20310;-68
2021/12/19 12:03:53;;;;;;;32.50;12.73;;;;;;;;;;5068447;28;20060;-68
2021/12/19 12:06:40;;;;;;;29.60;12.45;;;;;;;;;;5071934;28;20051;-68
2021/12/19 12:09:23;;;;;;;30.60;11.88;;;;;;;;;;5067451;28;20102;-68
2021/12/19 12:12:13;;;;;;;33.30;14.00;;;;;;;;;;5068614;28;20390;-68
2021/12/19 12:14:43;;;;;;;27.67;12.30;;;;;;;;;;5066043;28;20049;-68
2021/12/19 12:17:17;;;;;;;27.55;11.32;;;;;;;;;;5071744;28;20139;-68
2021/12/19 12:19:48;;;;;;;29.67;13.10;;;;;;;;;;5067469;28;20056;-68
2021/12/19 12:22:33;;;;;;;27.92;12.68;;;;;;;;;;5072080;28;20076;-68
2021/12/19 12:25:11;;;;;;;26.73;11.07;;;;;;;;;;5071241;28;20062;-68
2021/12/19 12:27:39;;;;;;;25.42;11.35;;;;;;;;;;5071690;28;20426;-69
2021/12/19 12:30:09;;;;;;;27.90;11.93;;;;;;;;;;5071993;28;20051;-68
2021/12/19 12:32:37;;;;;;;30.45;12.20;;;;;;;;;;5071638;28;20394;-71
2021/12/19 12:35:07;;;;;;;24.15;10.75;;;;;;;;;;5071662;28;20052;-67
2021/12/19 12:37:34;;;;;;;24.10;11.65;;;;;;;;;;5065614;28;20047;-66
2021/12/19 12:40:20;;;;;;;22.58;10.95;;;;;;;;;;5071371;28;20044;-66
2021/12/19 12:43:08;;;;;;;23.13;11.10;;;;;;;;;;5032336;28;20060;-66
2021/12/19 12:46:03;;;;;;;27.98;12.35;;;;;;;;;;5066998;28;20047;-68
2021/12/19 12:48:42;;;;;;;27.98;11.77;;;;;;;;;;5070573;28;20520;-68
2021/12/19 12:51:13;;;;;;;27.08;12.43;;;;;;;;;;5031595;28;20045;-68
2021/12/19 12:53:49;;;;;;;23.38;11.90;;;;;;;;;;5035127;28;20049;-68
2021/12/19 12:56:20;;;;;;;31.13;12.38;;;;;;;;;;5035744;28;20156;-68
2021/12/19 12:58:50;;;;;;;30.17;11.98;;;;;;;;;;5035821;28;20060;-68
2021/12/19 13:01:23;;;;;;;28.02;12.68;;;;;;;;;;5036513;28;20050;-68
2021/12/19 13:04:13;;;;;;;27.13;11.18;;;;;;;;;;5035340;28;20092;-68
2021/12/19 13:06:47;;;;;;;27.40;13.40;;;;;;;;;;5033630;28;20053;-68
2021/12/19 13:09:18;;;;;;;29.48;11.57;;;;;;;;;;5035137;28;20506;-68
2021/12/19 13:11:50;;;;;;;26.67;11.93;;;;;;;;;;5035176;28;20167;-68
2021/12/19 13:14:20;;;;;;;28.05;11.75;;;;;;;;;;5035382;28;20060;-69
2021/12/19 13:16:48;;;;;;;26.45;11.55;;;;;;;;;;5035300;28;20091;-69
2021/12/19 13:19:50;;;;;;;27.38;11.65;;;;;;;;;;5035521;28;20140;-69
2021/12/19 13:22:22;;;;;;;24.42;11.18;;;;;;;;;;5035202;28;20045;-68
2021/12/19 13:24:51;;;;;;;25.40;11.18;;;;;;;;;;5035177;28;20049;-69
2021/12/19 13:27:20;;;;;;;24.20;10.93;;;;;;;;;;5035395;28;20045;-69
2021/12/19 13:30:03;;;;;;;25.67;11.65;;;;;;;;;;5034870;28;20395;-69
2021/12/19 13:32:33;;;;;;;25.52;12.05;;;;;;;;;;5035867;28;20123;-69
2021/12/19 13:35:01;;;;;;;26.20;11.33;;;;;;;;;;5035477;28;20052;-69
2021/12/19 13:37:33;;;;;;;24.50;11.18;;;;;;;;;;5035245;28;20056;-69
2021/12/19 13:40:09;;;;;;;28.35;12.95;;;;;;;;;;5035385;28;20057;-69
2021/12/19 13:42:45;;;;;;;25.52;12.27;;;;;;;;;;5035426;28;20548;-69
2021/12/19 13:45:36;;;;;;;23.33;11.75;;;;;;;;;;5034934;28;20384;-68
2021/12/19 13:48:06;;;;;;;24.67;10.90;;;;;;;;;;5034656;28;20564;-69
2021/12/19 13:50:38;;;;;;;24.83;10.70;;;;;;;;;;5035219;28;20045;-69
2021/12/19 13:53:06;;;;;;;27.60;11.63;;;;;;;;;;5035002;28;20054;-69
2021/12/19 13:55:42;;;;;;;26.80;12.18;;;;;;;;;;5034535;28;20045;-69
2021/12/19 13:58:10;;;;;;;26.15;10.82;;;;;;;;;;5034266;28;20046;-69
2021/12/19 14:00:40;;;;;;;22.90;9.87;;;;;;;;;;5034669;28;20045;-68
2021/12/19 14:03:07;;;;;;;23.98;10.68;;;;;;;;;;5034465;28;20403;-69
2021/12/19 14:05:40;;;;;;;23.90;10.70;;;;;;;;;;5034696;28;20056;-69
2021/12/19 14:08:30;;;;;;;23.05;10.68;;;;;;;;;;5034737;28;20057;-68
2021/12/19 14:11:06;;;;;;;25.92;11.45;;;;;;;;;;5030272;28;20061;-69
2021/12/19 14:13:35;;;;;;;27.30;11.30;;;;;;;;;;5034465;28;20049;-69
2021/12/19 14:16:04;;;;;;;24.75;10.63;;;;;;;;;;5034841;28;20072;-68
2021/12/19 14:18:40;;;;;;;27.15;11.60;;;;;;;;;;5034416;28;20446;-69
2021/12/19 14:21:34;;;;;;;24.55;10.23;;;;;;;;;;5034510;28;20131;-69
2021/12/19 14:24:14;;;;;;;26.15;11.68;;;;;;;;;;5034595;28;20053;-68
2021/12/19 14:26:45;;;;;;;26.52;10.65;;;;;;;;;;5034726;28;20050;-69
2021/12/19 14:29:25;;;;;;;25.67;11.80;;;;;;;;;;5034023;28;20054;-69
2021/12/19 14:31:54;;;;;;;26.83;11.25;;;;;;;;;;5034097;28;20180;-68
2021/12/19 14:34:24;;;;;;;28.60;12.38;;;;;;;;;;5034208;28;20506;-69
2021/12/19 14:36:52;;;;;;;26.00;11.70;;;;;;;;;;5034140;28;20064;-69
2021/12/19 14:39:26;;;;;;;27.40;12.38;;;;;;;;;;5033963;28;20081;-69
2021/12/19 14:42:08;;;;;;;25.30;11.70;;;;;;;;;;5033809;28;20045;-69
2021/12/19 14:44:35;;;;;;;27.98;12.65;;;;;;;;;;5033991;28;20132;-69
2021/12/19 14:47:03;;;;;;;26.38;11.45;;;;;;;;;;5033594;28;20058;-68
2021/12/19 14:49:41;;;;;;;26.70;12.25;;;;;;;;;;5033395;28;20057;-68
2021/12/19 14:52:08;;;;;;;30.02;12.75;;;;;;;;;;5033472;28;20469;-68
2021/12/19 14:54:37;;;;;;;29.58;12.52;;;;;;;;;;5033299;28;20045;-68
2021/12/19 14:57:05;;;;;;;29.30;13.23;;;;;;;;;;5033867;28;20052;-69
2021/12/19 14:59:32;;;;;;;27.95;12.20;;;;;;;;;;5033120;28;20049;-68
2021/12/19 15:01:58;;;;;;;31.05;12.25;;;;;;;;;;5033660;28;20061;-69
2021/12/19 15:04:26;;;;;;;27.88;11.90;;;;;;;;;;5033175;28;20057;-69
2021/12/19 15:06:59;;;;;;;30.42;13.10;;;;;;;;;;5033293;28;20053;-69
2021/12/19 15:09:29;;;;;;;30.98;13.80;;;;;;;;;;5032964;28;20075;-68
2021/12/19 15:12:00;;;;;;;32.35;14.13;;;;;;;;;;5033251;28;20136;-69
2021/12/19 15:14:28;;;;;;;;;;;;;;;;;;5033568;28;20076;-68
2021/12/19 15:16:55;;;;;;;30.55;13.15;;;;;;;;;;5033403;28;19923;-68
2021/12/19 15:19:24;;;;;;;35.15;15.48;;;;;;;;;;5032853;28;20053;-68
2021/12/19 15:21:51;;;;;;;34.97;14.43;;;;;;;;;;5033398;28;20507;-68
2021/12/19 15:24:18;;;;;;;34.03;14.15;;;;;;;;;;5032691;28;20050;-68
2021/12/19 15:26:45;;;;;;;29.10;13.40;;;;;;;;;;5032978;28;20055;-68
2021/12/19 15:29:13;;;;;;;28.73;12.25;;;;;;;;;;5032575;28;20049;-68
2021/12/19 15:31:40;;;;;;;34.05;14.68;;;;;;;;;;5032750;28;20061;-68